Time;durP1;ratioP1;P1;durP2;ratioP2;P2;SDS_P1;SDS_P2;PMS_P1;PMS_P2;Temp;Humidity;BMP_temperature;BMP_pressure;BME280_temperature;BME280_humidity;BME280_pressure;Samples;Min_cycle;Max_cycle;Signal;HPM_P1;HPM_P2
2022/01/14 00:38:10;;;;;;;87.20;22.17;;;;;;;;;;6270427;22;20647;-90
2022/01/14 01:02:36;;;;;;;87.97;22.47;;;;;;;;;;6250804;22;20178;-91
2022/01/14 02:16:20;;;;;;;72.80;20.60;;;;;;;;;;6251535;22;20219;-90
2022/01/14 02:22:22;;;;;;;79.70;20.70;;;;;;;;;;6266500;22;20215;-91
2022/01/14 03:41:46;;;;;;;69.50;20.10;;;;;;;;;;6198092;22;20200;-91
2022/01/14 03:44:51;;;;;;;69.70;20.03;;;;;;;;;;6232088;23;20191;-91
2022/01/14 03:47:57;;;;;;;82.77;20.90;;;;;;;;;;6232270;23;20610;-90
2022/01/14 03:51:02;;;;;;;77.37;21.37;;;;;;;;;;6232920;23;20156;-91
2022/01/14 03:54:07;;;;;;;76.70;20.47;;;;;;;;;;6231149;23;20170;-91
2022/01/14 03:57:14;;;;;;;79.73;21.43;;;;;;;;;;6230612;23;20492;-90
2022/01/14 04:00:20;;;;;;;77.50;20.37;;;;;;;;;;6231317;23;20202;-92
2022/01/14 04:03:25;;;;;;;88.07;22.40;;;;;;;;;;6233257;23;20159;-92
2022/01/14 04:06:30;;;;;;;85.70;22.50;;;;;;;;;;6232143;23;20211;-90
2022/01/14 04:09:37;;;;;;;87.57;22.33;;;;;;;;;;6231406;23;20679;-92
2022/01/14 04:12:56;;;;;;;80.60;21.47;;;;;;;;;;6230222;23;20191;-91
2022/01/14 04:16:01;;;;;;;77.83;19.73;;;;;;;;;;6231855;23;20171;-89
2022/01/14 04:19:06;;;;;;;75.07;20.57;;;;;;;;;;6231900;23;20171;-91
2022/01/14 04:22:11;;;;;;;84.93;22.40;;;;;;;;;;6231457;23;20166;-90
2022/01/14 04:25:17;;;;;;;71.83;19.90;;;;;;;;;;6231403;23;20210;-91
2022/01/14 04:28:25;;;;;;;74.90;21.13;;;;;;;;;;6232233;23;20158;-91
2022/01/14 04:31:31;;;;;;;78.60;21.60;;;;;;;;;;6232499;23;20151;-90
2022/01/14 04:34:36;;;;;;;77.70;21.20;;;;;;;;;;6234888;23;20171;-90
2022/01/14 04:37:42;;;;;;;90.07;22.17;;;;;;;;;;6232411;23;20155;-91
2022/01/14 04:40:51;;;;;;;82.00;19.87;;;;;;;;;;6233360;23;20187;-91
2022/01/14 04:43:58;;;;;;;79.47;21.90;;;;;;;;;;6232966;23;20635;-91
2022/01/14 04:47:16;;;;;;;76.63;21.93;;;;;;;;;;6233205;23;20200;-92
2022/01/14 04:50:22;;;;;;;87.93;23.07;;;;;;;;;;6233237;23;20217;-90
2022/01/14 04:53:30;;;;;;;76.93;21.67;;;;;;;;;;6233072;23;20203;-90
2022/01/14 04:56:35;;;;;;;78.87;21.50;;;;;;;;;;6236848;23;20175;-90
2022/01/14 04:59:44;;;;;;;68.57;20.03;;;;;;;;;;6235494;23;20263;-90
2022/01/14 05:03:00;;;;;;;75.63;20.47;;;;;;;;;;6236145;23;20167;-91
2022/01/14 05:06:06;;;;;;;74.17;20.40;;;;;;;;;;6236248;23;20187;-90
2022/01/14 05:09:21;;;;;;;68.07;18.97;;;;;;;;;;6236467;23;20154;-90
2022/01/14 05:12:26;;;;;;;76.10;20.73;;;;;;;;;;6234087;23;20162;-91
2022/01/14 05:15:33;;;;;;;75.03;21.80;;;;;;;;;;6233273;23;20219;-91
2022/01/14 05:18:39;;;;;;;80.10;21.43;;;;;;;;;;6233224;23;20676;-91
2022/01/14 05:21:45;;;;;;;81.37;20.37;;;;;;;;;;6233447;23;20202;-90
2022/01/14 05:24:50;;;;;;;87.20;21.03;;;;;;;;;;6233219;23;20171;-90
2022/01/14 05:27:54;;;;;;;90.80;22.30;;;;;;;;;;6234257;23;20168;-91
2022/01/14 05:31:06;;;;;;;87.13;20.23;;;;;;;;;;6235676;23;20310;-91
2022/01/14 05:34:12;;;;;;;90.47;22.67;;;;;;;;;;6235432;23;20187;-90
2022/01/14 05:37:17;;;;;;;84.20;20.27;;;;;;;;;;6234469;23;20163;-91
2022/01/14 05:40:24;;;;;;;71.23;20.23;;;;;;;;;;6236648;23;20214;-91
2022/01/14 05:43:30;;;;;;;87.77;21.20;;;;;;;;;;6234988;23;20514;-90
2022/01/14 05:46:37;;;;;;;82.90;21.10;;;;;;;;;;6234403;23;20167;-90
2022/01/14 05:49:42;;;;;;;84.60;21.10;;;;;;;;;;6234636;23;20159;-91
2022/01/14 05:52:48;;;;;;;90.80;22.70;;;;;;;;;;6235972;23;20266;-91
2022/01/14 05:55:53;;;;;;;90.50;22.97;;;;;;;;;;6235761;23;20235;-89
2022/01/14 05:59:03;;;;;;;85.77;21.13;;;;;;;;;;6235964;23;20242;-90
2022/01/14 06:02:13;;;;;;;83.47;22.53;;;;;;;;;;6234149;23;20195;-91
2022/01/14 06:05:18;;;;;;;82.47;21.77;;;;;;;;;;6235143;23;20170;-91
2022/01/14 06:08:24;;;;;;;71.97;18.97;;;;;;;;;;6237551;23;20216;-91
2022/01/14 06:11:30;;;;;;;76.20;19.80;;;;;;;;;;6238022;23;20147;-92
2022/01/14 06:19:15;;;;;;;66.60;18.23;;;;;;;;;;6238051;23;20138;-91
2022/01/14 06:22:21;;;;;;;81.30;21.23;;;;;;;;;;6235470;23;20166;-93
2022/01/14 06:25:27;;;;;;;76.53;20.60;;;;;;;;;;6238462;23;20175;-91
2022/01/14 06:57:55;;;;;;;79.40;21.07;;;;;;;;;;6195750;22;20231;-91
2022/01/14 07:01:01;;;;;;;94.03;21.70;;;;;;;;;;6233960;23;20247;-90
2022/01/14 07:04:07;;;;;;;76.10;20.77;;;;;;;;;;6236244;23;20243;-92
2022/01/14 07:07:13;;;;;;;94.80;24.00;;;;;;;;;;6234758;23;20179;-90
2022/01/14 07:10:18;;;;;;;78.23;21.37;;;;;;;;;;6232973;23;20170;-89
2022/01/14 07:13:26;;;;;;;84.53;22.50;;;;;;;;;;6233381;23;20179;-91
2022/01/14 07:16:32;;;;;;;79.70;21.80;;;;;;;;;;6234139;23;20167;-90
2022/01/14 07:19:38;;;;;;;90.07;23.20;;;;;;;;;;6234578;23;20171;-91
2022/01/14 07:22:45;;;;;;;88.27;23.17;;;;;;;;;;6235356;23;20166;-92
2022/01/14 07:25:51;;;;;;;85.60;22.70;;;;;;;;;;6233875;23;20167;-91
2022/01/14 07:28:58;;;;;;;84.10;22.37;;;;;;;;;;6235889;23;20212;-92
2022/01/14 07:32:04;;;;;;;86.07;22.20;;;;;;;;;;6235565;23;20211;-92
2022/01/14 07:35:10;;;;;;;97.97;23.20;;;;;;;;;;6234582;23;20195;-91
2022/01/14 07:38:18;;;;;;;90.80;24.60;;;;;;;;;;6234465;23;20203;-92
2022/01/14 07:41:32;;;;;;;111.17;26.13;;;;;;;;;;6235870;23;20195;-90
2022/01/14 07:44:40;;;;;;;92.27;22.43;;;;;;;;;;6235142;23;20238;-93
2022/01/14 07:47:49;;;;;;;81.23;23.27;;;;;;;;;;6234970;23;20172;-91
2022/01/14 07:50:55;;;;;;;94.27;25.57;;;;;;;;;;6234439;23;20191;-91
2022/01/14 07:54:05;;;;;;;91.03;21.47;;;;;;;;;;6236404;23;20155;-92
2022/01/14 07:57:10;;;;;;;85.33;22.77;;;;;;;;;;6234615;23;20163;-92
2022/01/14 08:00:18;;;;;;;81.00;22.77;;;;;;;;;;6217064;22;20216;-91
2022/01/14 08:03:28;;;;;;;84.13;23.17;;;;;;;;;;6219622;23;20214;-91
2022/01/14 08:06:37;;;;;;;80.20;23.00;;;;;;;;;;6217574;22;20155;-91
2022/01/14 08:09:44;;;;;;;103.07;26.53;;;;;;;;;;6218217;22;20159;-90
2022/01/14 08:12:50;;;;;;;90.10;23.83;;;;;;;;;;6219058;23;20170;-92
2022/01/14 08:16:11;;;;;;;86.80;23.73;;;;;;;;;;6219240;22;20216;-91
2022/01/14 08:19:21;;;;;;;89.47;23.43;;;;;;;;;;6218628;23;20216;-91
2022/01/14 08:22:28;;;;;;;84.83;22.57;;;;;;;;;;6219452;22;20215;-91
2022/01/14 08:25:33;;;;;;;88.00;23.70;;;;;;;;;;6215565;22;20173;-90
2022/01/14 08:28:39;;;;;;;84.07;22.93;;;;;;;;;;6217525;23;20170;-93
2022/01/14 08:31:44;;;;;;;97.83;25.13;;;;;;;;;;6218977;23;20175;-90
2022/01/14 08:34:52;;;;;;;87.13;22.17;;;;;;;;;;6219535;22;20214;-91
2022/01/14 08:37:59;;;;;;;88.70;23.37;;;;;;;;;;6218458;22;20146;-90
2022/01/14 08:41:05;;;;;;;79.13;22.43;;;;;;;;;;6219824;23;20222;-91
2022/01/14 08:44:12;;;;;;;82.63;22.87;;;;;;;;;;6220127;23;20172;-90
2022/01/14 08:50:43;;;;;;;74.43;21.87;;;;;;;;;;6219202;22;20159;-92
2022/01/14 08:53:48;;;;;;;85.80;23.73;;;;;;;;;;6218881;22;20180;-89
2022/01/14 08:56:54;;;;;;;76.40;23.47;;;;;;;;;;6218561;23;20635;-89
2022/01/14 09:00:00;;;;;;;83.80;22.70;;;;;;;;;;6187878;23;20208;-90
2022/01/14 09:03:10;;;;;;;84.30;22.60;;;;;;;;;;6189399;23;20160;-93
2022/01/14 09:06:17;;;;;;;77.63;22.00;;;;;;;;;;6190378;23;20172;-93
2022/01/14 09:09:26;;;;;;;80.47;21.70;;;;;;;;;;6190904;23;20168;-91
2022/01/14 09:12:32;;;;;;;77.93;21.50;;;;;;;;;;6189817;23;20172;-92
2022/01/14 09:15:37;;;;;;;77.57;22.07;;;;;;;;;;6189502;23;20213;-92
2022/01/14 09:18:43;;;;;;;79.30;21.97;;;;;;;;;;6189132;23;20164;-92
2022/01/14 09:21:50;;;;;;;73.03;20.87;;;;;;;;;;6189149;23;20196;-93
2022/01/14 09:24:59;;;;;;;58.07;16.13;;;;;;;;;;6188694;23;20173;-91
2022/01/14 09:28:05;;;;;;;85.77;23.73;;;;;;;;;;6188299;23;20172;-92
2022/01/14 09:31:16;;;;;;;65.37;19.87;;;;;;;;;;6187996;23;20172;-92
2022/01/14 09:34:22;;;;;;;81.63;21.03;;;;;;;;;;6207040;23;20152;-92
2022/01/14 09:37:30;;;;;;;73.33;19.30;;;;;;;;;;6186156;23;20164;-90
2022/01/14 09:40:36;;;;;;;71.70;20.27;;;;;;;;;;6185979;23;20180;-92
2022/01/14 09:43:41;;;;;;;59.10;17.47;;;;;;;;;;6187560;23;20299;-92
2022/01/14 09:46:49;;;;;;;60.13;18.37;;;;;;;;;;6189078;23;20187;-90
2022/01/14 09:49:54;;;;;;;68.87;18.90;;;;;;;;;;6187934;23;20225;-92
2022/01/14 09:53:03;;;;;;;58.40;16.80;;;;;;;;;;6187911;23;20164;-90
2022/01/14 09:56:09;;;;;;;72.70;22.07;;;;;;;;;;6187279;23;20153;-90
2022/01/14 09:59:16;;;;;;;80.80;20.93;;;;;;;;;;6225015;23;20186;-92
2022/01/14 10:02:31;;;;;;;79.10;21.50;;;;;;;;;;6235803;23;20195;-92
2022/01/14 10:05:41;;;;;;;57.70;17.50;;;;;;;;;;6235310;23;20176;-89
2022/01/14 10:08:48;;;;;;;73.80;21.00;;;;;;;;;;6233681;23;20174;-92
2022/01/14 11:10:38;;;;;;;76.30;20.20;;;;;;;;;;6190266;22;20220;-90
2022/01/14 11:13:44;;;;;;;69.67;20.67;;;;;;;;;;6234478;23;20236;-91
2022/01/14 11:16:50;;;;;;;66.83;21.30;;;;;;;;;;6231057;23;20163;-89
2022/01/14 11:19:55;;;;;;;74.83;22.10;;;;;;;;;;6235369;23;20208;-90
2022/01/14 11:23:16;;;;;;;86.07;22.40;;;;;;;;;;6236190;23;20178;-89
2022/01/14 11:26:29;;;;;;;71.77;21.93;;;;;;;;;;6234372;23;20167;-90
2022/01/14 11:29:36;;;;;;;71.33;22.10;;;;;;;;;;6233657;23;20167;-90
2022/01/14 11:32:53;;;;;;;66.20;18.33;;;;;;;;;;6234442;23;20163;-91
2022/01/14 11:36:09;;;;;;;82.27;22.93;;;;;;;;;;6237362;23;20155;-89
2022/01/14 11:39:23;;;;;;;59.53;17.87;;;;;;;;;;6237928;23;20187;-92
2022/01/14 12:03:51;;;;;;;78.83;20.30;;;;;;;;;;6209964;22;20218;-90
2022/01/14 12:07:01;;;;;;;69.70;21.60;;;;;;;;;;6249916;22;20211;-91
2022/01/14 12:10:09;;;;;;;70.67;22.80;;;;;;;;;;6249002;23;20174;-89
2022/01/14 12:13:53;;;;;;;71.73;21.07;;;;;;;;;;6249105;22;20216;-91
2022/01/14 12:17:12;;;;;;;62.00;20.47;;;;;;;;;;6247470;22;20158;-91
2022/01/14 12:23:42;;;;;;;80.53;22.70;;;;;;;;;;6248770;23;20170;-91
2022/01/14 12:27:11;;;;;;;75.53;22.07;;;;;;;;;;6249020;23;20167;-90
2022/01/14 12:30:34;;;;;;;73.83;21.80;;;;;;;;;;6246384;22;20190;-90
2022/01/14 12:33:40;;;;;;;69.27;22.50;;;;;;;;;;6248513;23;20633;-90
2022/01/14 12:36:51;;;;;;;59.00;17.27;;;;;;;;;;6250086;23;20166;-90
2022/01/14 12:39:57;;;;;;;63.83;20.40;;;;;;;;;;6246181;22;20166;-90
2022/01/14 12:43:13;;;;;;;71.70;21.20;;;;;;;;;;6250061;22;20178;-90
2022/01/14 12:46:34;;;;;;;83.63;21.77;;;;;;;;;;6250562;22;20159;-92
2022/01/14 12:49:40;;;;;;;67.80;21.13;;;;;;;;;;6247754;23;20223;-90
2022/01/14 12:52:48;;;;;;;69.23;22.10;;;;;;;;;;6248984;23;20174;-91
2022/01/14 12:55:53;;;;;;;65.30;21.20;;;;;;;;;;6245750;22;20175;-90
2022/01/14 12:59:03;;;;;;;59.40;19.33;;;;;;;;;;6246639;22;20159;-90
2022/01/14 13:02:13;;;;;;;62.00;19.03;;;;;;;;;;6247116;22;20210;-91
2022/01/14 15:20:16;;;;;;;54.63;16.20;;;;;;;;;;6216854;22;20199;-90
2022/01/14 15:23:23;;;;;;;68.30;20.73;;;;;;;;;;6234631;23;20198;-92
2022/01/14 15:26:30;;;;;;;71.37;19.47;;;;;;;;;;6233844;23;20154;-91
2022/01/14 15:29:35;;;;;;;64.87;19.33;;;;;;;;;;6235840;23;20200;-89
2022/01/14 15:32:41;;;;;;;69.53;19.63;;;;;;;;;;6235569;23;20207;-88
2022/01/14 15:35:59;;;;;;;59.70;17.70;;;;;;;;;;6235721;23;20167;-91
2022/01/14 15:39:05;;;;;;;68.67;18.90;;;;;;;;;;6234005;23;20170;-91
2022/01/14 15:45:29;;;;;;;60.60;17.03;;;;;;;;;;6236197;23;20187;-90
2022/01/14 15:48:35;;;;;;;60.40;18.37;;;;;;;;;;6232911;23;20171;-92
2022/01/14 15:51:43;;;;;;;65.33;20.17;;;;;;;;;;6235603;23;20200;-90
2022/01/14 15:58:08;;;;;;;75.60;21.93;;;;;;;;;;6234814;23;20189;-89
2022/01/14 16:01:14;;;;;;;68.47;17.80;;;;;;;;;;6234252;23;20159;-89
2022/01/14 16:04:28;;;;;;;72.63;20.40;;;;;;;;;;6236301;23;20195;-89
2022/01/14 16:07:39;;;;;;;70.03;18.30;;;;;;;;;;6235968;23;20187;-89
2022/01/14 16:10:44;;;;;;;71.43;20.03;;;;;;;;;;6234896;23;20154;-90
2022/01/14 16:14:09;;;;;;;70.27;20.17;;;;;;;;;;6235522;23;20179;-90
2022/01/14 16:17:14;;;;;;;81.53;23.30;;;;;;;;;;6234154;23;20167;-89
2022/01/14 16:20:20;;;;;;;89.47;24.53;;;;;;;;;;6235204;23;20190;-91
2022/01/14 16:23:27;;;;;;;89.97;23.93;;;;;;;;;;6232875;23;20246;-90
2022/01/14 16:26:33;;;;;;;91.33;23.77;;;;;;;;;;6234081;23;20195;-90
2022/01/14 16:29:43;;;;;;;75.83;19.93;;;;;;;;;;6234511;23;20499;-89
2022/01/14 16:32:48;;;;;;;84.47;23.77;;;;;;;;;;6233929;23;20199;-90
2022/01/14 16:35:58;;;;;;;78.40;22.50;;;;;;;;;;6232312;23;20195;-89
2022/01/14 16:39:08;;;;;;;86.30;23.70;;;;;;;;;;6235812;23;20211;-90
2022/01/14 16:42:14;;;;;;;80.93;19.60;;;;;;;;;;6234815;23;20178;-89
2022/01/14 16:45:20;;;;;;;81.93;23.87;;;;;;;;;;6234872;23;20170;-89
2022/01/14 16:48:27;;;;;;;83.00;24.33;;;;;;;;;;6231403;23;20206;-90
2022/01/14 16:51:38;;;;;;;79.83;23.43;;;;;;;;;;6239549;23;20555;-90
2022/01/14 16:54:46;;;;;;;84.10;22.43;;;;;;;;;;6235943;23;20227;-90
2022/01/14 16:57:52;;;;;;;77.40;21.47;;;;;;;;;;6236710;23;20216;-90
2022/01/14 17:01:01;;;;;;;66.23;20.37;;;;;;;;;;6237897;23;20214;-90
2022/01/14 17:04:07;;;;;;;73.67;20.70;;;;;;;;;;6236558;23;20203;-91
2022/01/14 17:07:19;;;;;;;81.90;26.33;;;;;;;;;;6239563;23;20186;-90
2022/01/14 17:10:27;;;;;;;70.30;21.63;;;;;;;;;;6238846;23;20190;-90
2022/01/14 17:13:32;;;;;;;74.47;20.60;;;;;;;;;;6237014;23;20179;-90
2022/01/14 17:16:38;;;;;;;77.90;23.30;;;;;;;;;;6235852;23;20159;-91
2022/01/14 17:19:44;;;;;;;82.77;22.60;;;;;;;;;;6234893;23;20222;-91
2022/01/14 17:22:50;;;;;;;76.17;22.57;;;;;;;;;;6237659;23;20195;-90
2022/01/14 17:26:05;;;;;;;78.67;22.50;;;;;;;;;;6237222;23;20195;-91
2022/01/14 17:29:10;;;;;;;87.87;24.60;;;;;;;;;;6235750;23;20190;-90
2022/01/14 17:32:17;;;;;;;175.40;45.30;;;;;;;;;;6235505;23;20172;-89
2022/01/14 19:09:24;;;;;;;96.43;25.00;;;;;;;;;;6205099;22;20212;-87
2022/01/14 19:12:29;;;;;;;98.03;26.47;;;;;;;;;;6202174;23;20355;-87
2022/01/14 19:15:38;;;;;;;84.60;22.73;;;;;;;;;;6203133;23;20240;-87
2022/01/14 19:18:44;;;;;;;91.33;24.67;;;;;;;;;;6203172;23;20219;-87
2022/01/14 19:21:49;;;;;;;98.60;26.27;;;;;;;;;;6203500;23;20179;-86
2022/01/14 19:24:56;;;;;;;97.53;24.70;;;;;;;;;;6204114;23;20303;-86
2022/01/14 19:28:05;;;;;;;93.60;24.93;;;;;;;;;;6203548;23;20171;-87
2022/01/14 19:31:10;;;;;;;92.03;24.13;;;;;;;;;;6219662;23;20227;-86
2022/01/14 19:34:16;;;;;;;96.77;22.57;;;;;;;;;;6203958;23;20171;-85
2022/01/14 19:37:22;;;;;;;87.47;23.20;;;;;;;;;;6204196;23;20175;-87
2022/01/14 19:40:32;;;;;;;85.00;23.30;;;;;;;;;;6203279;23;20175;-86
2022/01/14 19:43:37;;;;;;;91.13;23.87;;;;;;;;;;6204164;23;20210;-86
2022/01/14 19:46:43;;;;;;;87.17;24.23;;;;;;;;;;6220732;23;20503;-86
2022/01/14 19:49:48;;;;;;;98.73;25.77;;;;;;;;;;6201611;23;20214;-86
2022/01/14 19:52:56;;;;;;;97.83;23.27;;;;;;;;;;6204753;23;20411;-87
2022/01/14 19:56:04;;;;;;;88.07;22.50;;;;;;;;;;6232912;23;20175;-86
2022/01/14 19:59:10;;;;;;;89.40;23.13;;;;;;;;;;6232237;23;20418;-87
2022/01/14 20:02:18;;;;;;;86.13;22.10;;;;;;;;;;6230709;23;20178;-86
2022/01/14 20:05:25;;;;;;;96.67;23.43;;;;;;;;;;6231362;23;20178;-86
2022/01/14 20:08:30;;;;;;;101.37;25.83;;;;;;;;;;6231716;23;20186;-86
2022/01/14 20:11:37;;;;;;;100.13;25.23;;;;;;;;;;6232078;23;20173;-86
2022/01/14 20:14:45;;;;;;;110.83;27.10;;;;;;;;;;6231583;23;20169;-86
2022/01/14 20:17:50;;;;;;;97.17;25.17;;;;;;;;;;6231138;23;20182;-86
2022/01/14 20:20:56;;;;;;;110.63;25.17;;;;;;;;;;6231528;23;20182;-86
2022/01/14 20:24:02;;;;;;;101.63;21.70;;;;;;;;;;6234022;23;20234;-85
2022/01/14 20:27:08;;;;;;;91.93;25.10;;;;;;;;;;6234016;23;20533;-86
2022/01/14 20:30:15;;;;;;;81.67;22.80;;;;;;;;;;6234604;23;20194;-86
2022/01/14 20:33:22;;;;;;;100.87;22.43;;;;;;;;;;6236599;23;20166;-87
2022/01/14 20:36:28;;;;;;;108.00;22.80;;;;;;;;;;6235270;23;20262;-87
2022/01/14 20:39:34;;;;;;;106.10;24.80;;;;;;;;;;6236158;23;20178;-86
2022/01/14 20:42:44;;;;;;;109.00;24.50;;;;;;;;;;6236575;23;20525;-86
2022/01/14 20:45:52;;;;;;;93.83;24.70;;;;;;;;;;6236223;23;20178;-86
2022/01/14 20:48:57;;;;;;;113.27;25.37;;;;;;;;;;6236223;23;20448;-86
2022/01/14 20:52:03;;;;;;;102.33;23.60;;;;;;;;;;6239270;23;20182;-85
2022/01/14 20:55:09;;;;;;;117.43;28.83;;;;;;;;;;6246701;23;20219;-85
2022/01/14 20:58:16;;;;;;;97.07;23.77;;;;;;;;;;6246021;23;20177;-85
2022/01/14 21:01:21;;;;;;;88.93;24.50;;;;;;;;;;6238301;23;20525;-86
2022/01/14 21:04:27;;;;;;;102.67;22.40;;;;;;;;;;6235971;23;20194;-85
2022/01/14 21:07:33;;;;;;;94.77;26.53;;;;;;;;;;6253854;23;20197;-85
2022/01/14 21:10:39;;;;;;;78.77;22.80;;;;;;;;;;6236114;23;20597;-86
2022/01/14 21:13:46;;;;;;;72.47;20.03;;;;;;;;;;6235574;23;20269;-86
2022/01/14 21:16:52;;;;;;;83.87;21.07;;;;;;;;;;6235292;23;20405;-87
2022/01/14 21:20:01;;;;;;;79.03;21.27;;;;;;;;;;6235341;23;20170;-85
2022/01/14 21:23:07;;;;;;;76.90;19.40;;;;;;;;;;6234716;23;20573;-87
2022/01/14 21:26:13;;;;;;;64.97;16.80;;;;;;;;;;6234577;23;20178;-86
2022/01/14 21:29:19;;;;;;;76.20;19.70;;;;;;;;;;6235053;23;20241;-86
2022/01/14 21:32:24;;;;;;;65.03;17.27;;;;;;;;;;6235504;23;20297;-87
2022/01/14 21:35:30;;;;;;;69.80;18.27;;;;;;;;;;6234386;23;20178;-86
2022/01/14 23:15:24;;;;;;;59.50;18.80;;;;;;;;;;6180039;22;20345;-91
2022/01/14 23:18:30;;;;;;;65.93;18.73;;;;;;;;;;6205413;23;20163;-92
2022/01/14 23:21:35;;;;;;;53.37;15.47;;;;;;;;;;6204530;23;20152;-89
2022/01/14 23:24:41;;;;;;;60.93;16.50;;;;;;;;;;6204699;23;20219;-90
2022/01/14 23:27:46;;;;;;;70.90;17.43;;;;;;;;;;6205849;23;20188;-91
2022/01/14 23:30:56;;;;;;;67.80;17.73;;;;;;;;;;6206398;23;20243;-90
2022/01/14 23:34:01;;;;;;;65.40;18.47;;;;;;;;;;6205865;23;20171;-92
2022/01/14 23:37:07;;;;;;;65.23;17.57;;;;;;;;;;6205055;23;20168;-92
2022/01/14 23:40:15;;;;;;;69.40;17.47;;;;;;;;;;6206039;23;20244;-90
2022/01/14 23:43:24;;;;;;;62.73;17.07;;;;;;;;;;6205513;23;20241;-89
2022/01/14 23:46:55;;;;;;;62.43;18.40;;;;;;;;;;6207392;23;20159;-92
2022/01/14 23:50:00;;;;;;;65.27;18.53;;;;;;;;;;6204180;23;20194;-91
2022/01/14 23:53:06;;;;;;;62.27;17.13;;;;;;;;;;6205562;23;20164;-92
2022/01/14 23:56:13;;;;;;;57.53;16.10;;;;;;;;;;6207877;23;20677;-91
2022/01/14 23:59:20;;;;;;;54.10;15.40;;;;;;;;;;6207098;23;20168;-91
